createdAt,value
2023-04-28T00:02:25.794Z,101522.41
2023-04-28T00:04:54.627Z,101514.75
2023-04-28T00:07:23.495Z,101519.41
2023-04-28T00:09:50.959Z,101517.63
2023-04-28T00:12:18.416Z,101518.03
2023-04-28T00:14:45.885Z,101517.75
2023-04-28T00:17:13.302Z,101511.34
2023-04-28T00:19:40.746Z,101524.06
2023-04-28T00:22:08.746Z,101523.06
2023-04-28T00:24:37.491Z,101517.47
2023-04-28T00:27:04.897Z,101508.84
2023-04-28T00:29:32.309Z,101512.47
2023-04-28T00:31:59.735Z,101514.25
2023-04-28T00:34:27.151Z,101520.59
2023-04-28T00:36:54.557Z,101512.81
2023-04-28T00:39:22.995Z,101510.69
2023-04-28T00:41:51.718Z,101512.94
2023-04-28T00:44:19.161Z,101505.31
2023-04-28T00:46:47.792Z,101500.97
2023-04-28T00:49:16.589Z,101498.34
2023-04-28T00:51:44.132Z,101502.34
2023-04-28T00:54:14.824Z,101495.09
2023-04-28T00:56:43.028Z,101490.03
2023-04-28T00:59:11.787Z,101493.31
2023-04-28T01:01:39.414Z,101490.63
2023-04-28T01:04:07.082Z,101494.69
2023-04-28T01:06:35.288Z,101485.97
2023-04-28T01:09:02.682Z,101489.50
2023-04-28T01:11:30.082Z,101490.63
2023-04-28T01:13:59.422Z,101481.97
2023-04-28T01:16:28.313Z,101481.03
2023-04-28T01:18:56.116Z,101481.31
2023-04-28T01:21:29.043Z,101475.38
2023-04-28T01:23:57.899Z,101474.31
2023-04-28T01:26:25.526Z,101473.59
2023-04-28T01:28:52.986Z,101472.16
2023-04-28T01:31:21.187Z,101469.34
2023-04-28T01:33:48.623Z,101467.16
2023-04-28T01:36:16.087Z,101463.09
2023-04-28T01:38:43.523Z,101457.34
2023-04-28T01:41:12.297Z,101462.16
2023-04-28T01:43:39.669Z,101457.13
2023-04-28T01:46:07.159Z,101456.41
2023-04-28T01:48:34.681Z,101461.97
2023-04-28T01:51:02.266Z,101456.75
2023-04-28T01:53:29.653Z,101452.69
2023-04-28T01:55:58.535Z,101454.31
2023-04-28T01:58:27.346Z,101449.59
2023-04-28T02:00:54.772Z,101453.00
2023-04-28T02:03:22.485Z,101445.53
2023-04-28T02:05:50.116Z,101452.47
2023-04-28T02:08:17.576Z,101445.06
2023-04-28T02:10:45.069Z,101451.94
2023-04-28T02:13:12.823Z,101448.59
2023-04-28T02:15:42.443Z,101449.53
2023-04-28T02:18:09.994Z,101446.63
2023-04-28T02:20:37.431Z,101451.75
2023-04-28T02:23:04.888Z,101443.47
2023-04-28T02:25:32.282Z,101445.53
2023-04-28T02:28:00.160Z,101442.06
2023-04-28T02:30:27.555Z,101440.91
2023-04-28T02:32:56.290Z,101432.38
2023-04-28T02:35:23.733Z,101436.34
2023-04-28T02:37:51.222Z,101438.25
2023-04-28T02:40:19.282Z,101428.53
2023-04-28T02:42:46.685Z,101438.56
2023-04-28T02:45:14.128Z,101441.59
2023-04-28T02:47:41.644Z,101428.84
2023-04-28T02:50:11.534Z,101428.59
2023-04-28T02:52:38.952Z,101429.09
2023-04-28T02:55:07.382Z,101424.91
2023-04-28T02:57:34.816Z,101427.69
2023-04-28T03:00:02.245Z,101428.69
2023-04-28T03:02:29.708Z,101436.59
2023-04-28T03:04:57.236Z,101426.19
2023-04-28T03:07:26.112Z,101424.66
2023-04-28T03:09:53.485Z,101426.06
2023-04-28T03:12:20.915Z,101423.84
2023-04-28T03:14:48.291Z,101422.97
2023-04-28T03:17:15.733Z,101418.34
2023-04-28T03:19:43.128Z,101417.44
2023-04-28T03:22:10.529Z,101415.31
2023-04-28T03:24:39.221Z,101410.41
2023-04-28T03:27:06.843Z,101407.38
2023-04-28T03:29:34.234Z,101406.91
2023-04-28T03:32:02.205Z,101411.75
2023-04-28T03:34:29.652Z,101409.56
2023-04-28T03:36:57.050Z,101402.38
2023-04-28T03:39:24.485Z,101402.84
2023-04-28T03:41:53.190Z,101403.63
2023-04-28T03:44:20.928Z,101401.13
2023-04-28T03:46:48.733Z,101399.28
2023-04-28T03:49:16.279Z,101400.63
2023-04-28T03:51:43.743Z,101392.34
2023-04-28T03:54:11.144Z,101392.13
2023-04-28T03:56:38.648Z,101389.34
2023-04-28T03:59:07.424Z,101393.34
2023-04-28T04:01:34.795Z,101393.72
2023-04-28T04:04:02.531Z,101382.00
2023-04-28T04:06:30.794Z,101383.41
2023-04-28T04:08:58.378Z,101375.56
2023-04-28T04:11:26.001Z,101384.56
2023-04-28T04:13:53.409Z,101382.88
2023-04-28T04:16:22.697Z,101373.88
2023-04-28T04:18:50.310Z,101376.75
2023-04-28T04:21:17.699Z,101374.78
2023-04-28T04:23:45.106Z,101375.84
2023-04-28T04:26:12.502Z,101373.59
2023-04-28T04:28:39.937Z,101367.97
2023-04-28T04:33:37.915Z,101365.84
2023-04-28T04:36:06.347Z,101361.47
2023-04-28T04:38:33.752Z,101358.53
2023-04-28T04:41:01.337Z,101360.44
2023-04-28T04:43:28.775Z,101363.81
2023-04-28T04:45:56.296Z,101356.72
2023-04-28T04:48:23.732Z,101353.41
2023-04-28T04:50:52.459Z,101358.47
2023-04-28T04:53:20.128Z,101360.75
2023-04-28T04:55:47.569Z,101352.97
2023-04-28T04:58:15.084Z,101354.03
2023-04-28T05:00:42.477Z,101349.69
2023-04-28T05:03:10.007Z,101342.72
2023-04-28T05:05:37.504Z,101344.81
2023-04-28T05:08:06.346Z,101343.94
2023-04-28T05:10:33.967Z,101341.78
2023-04-28T05:13:01.407Z,101334.22
2023-04-28T05:15:28.903Z,101333.16
2023-04-28T05:17:59.763Z,101338.97
2023-04-28T05:20:27.280Z,101331.72
2023-04-28T05:22:54.730Z,101333.19
2023-04-28T05:25:23.478Z,101337.88
2023-04-28T05:27:50.929Z,101332.38
2023-04-28T05:30:18.406Z,101325.16
2023-04-28T05:32:45.854Z,101317.44
2023-04-28T05:35:13.671Z,101309.78
2023-04-28T05:37:43.541Z,101299.94
2023-04-28T05:40:11.724Z,101282.50
2023-04-28T05:42:40.651Z,101278.56
2023-04-28T05:45:09.357Z,101281.13
2023-04-28T05:47:36.940Z,101267.50
2023-04-28T05:50:04.666Z,101280.22
2023-04-28T05:52:32.122Z,101288.47
2023-04-28T05:54:59.532Z,101273.47
2023-04-28T05:57:27.350Z,101287.25
2023-04-28T05:59:56.099Z,101289.09
2023-04-28T06:02:24.551Z,101285.63
2023-04-28T06:04:53.316Z,101275.75
2023-04-28T06:07:21.454Z,101279.69
2023-04-28T06:09:48.947Z,101288.25
2023-04-28T06:12:16.339Z,101282.09
2023-04-28T06:14:43.705Z,101277.91
2023-04-28T06:17:12.465Z,101294.25
2023-04-28T06:19:39.902Z,101278.28
2023-04-28T06:22:07.304Z,101271.88
2023-04-28T06:24:34.731Z,101264.94
2023-04-28T06:27:02.718Z,101270.13
2023-04-28T06:29:30.115Z,101280.34
2023-04-28T06:31:58.223Z,101273.00
2023-04-28T06:34:28.889Z,101264.34
2023-04-28T06:36:56.664Z,101258.25
2023-04-28T06:39:24.061Z,101273.41
2023-04-28T06:41:51.472Z,101273.03
2023-04-28T06:44:19.121Z,101270.75
2023-04-28T06:46:46.848Z,101270.13
2023-04-28T06:49:14.469Z,101270.94
2023-04-28T06:51:43.272Z,101258.81
2023-04-28T06:54:11.594Z,101259.47
2023-04-28T06:56:39.060Z,101264.19
2023-04-28T06:59:06.488Z,101255.59
2023-04-28T07:01:33.878Z,101262.06
2023-04-28T07:04:01.362Z,101253.47
2023-04-28T07:06:29.762Z,101248.63
2023-04-28T07:08:58.584Z,101250.72
2023-04-28T07:11:26.237Z,101244.31
2023-04-28T07:13:53.610Z,101247.19
2023-04-28T07:16:21.461Z,101235.22
2023-04-28T07:18:48.954Z,101238.81
2023-04-28T07:21:16.388Z,101236.22
2023-04-28T07:23:43.864Z,101213.13
2023-04-28T07:26:16.225Z,101221.44
2023-04-28T07:28:45.881Z,101223.28
2023-04-28T07:31:13.301Z,101219.44
2023-04-28T07:33:40.713Z,101199.81
2023-04-28T07:36:08.636Z,101210.47
2023-04-28T07:38:36.497Z,101204.31
2023-04-28T07:41:05.700Z,101210.06
2023-04-28T07:43:36.258Z,101204.50
2023-04-28T07:46:03.814Z,101200.59
2023-04-28T07:48:32.421Z,101196.16
2023-04-28T07:50:59.872Z,101190.09
2023-04-28T07:53:27.937Z,101181.91
2023-04-28T07:55:55.504Z,101181.88
2023-04-28T07:58:22.948Z,101181.88
2023-04-28T08:00:51.751Z,101182.75
2023-04-28T08:03:19.352Z,101182.53
2023-04-28T08:05:47.229Z,101179.31
2023-04-28T08:08:14.832Z,101173.25
2023-04-28T08:10:43.906Z,101174.13
2023-04-28T08:13:11.455Z,101175.75
2023-04-28T08:15:38.934Z,101174.72
2023-04-28T08:18:08.608Z,101170.25
2023-04-28T08:20:36.176Z,101164.88
2023-04-28T08:23:03.592Z,101174.94
2023-04-28T08:25:31.049Z,101172.41
2023-04-28T08:27:58.723Z,101173.25
2023-04-28T08:30:26.218Z,101160.97
2023-04-28T08:32:54.091Z,101155.56
2023-04-28T08:35:22.963Z,101158.53
2023-04-28T08:37:50.463Z,101158.59
2023-04-28T08:40:17.954Z,101156.84
2023-04-28T08:42:46.246Z,101155.97
2023-04-28T08:45:15.130Z,101154.25
2023-04-28T08:47:46.036Z,101154.25
2023-04-28T08:50:15.290Z,101146.41
2023-04-28T08:52:44.104Z,101144.72
2023-04-28T08:55:13.596Z,101142.09
2023-04-28T08:57:44.713Z,101147.31
2023-04-28T09:00:13.358Z,101139.53
2023-04-28T09:02:42.436Z,101140.44
2023-04-28T09:05:11.756Z,101139.53
2023-04-28T09:07:39.546Z,101137.66
2023-04-28T09:10:19.474Z,101129.16
2023-04-28T09:12:47.661Z,101118.66
2023-04-28T09:15:27.678Z,101115.28
2023-04-28T09:17:55.486Z,101108.44
2023-04-28T09:20:24.280Z,101102.25
2023-04-28T09:22:53.510Z,101110.91
2023-04-28T09:25:23.586Z,101102.19
2023-04-28T09:27:51.361Z,101098.72
2023-04-28T09:30:20.141Z,101094.53
2023-04-28T09:33:05.632Z,101084.47
2023-04-28T09:35:43.464Z,101099.72
2023-04-28T09:38:10.978Z,101089.16
2023-04-28T09:40:55.644Z,101082.22
2023-04-28T09:43:30.994Z,101067.94
2023-04-28T09:46:00.718Z,101078.78
2023-04-28T09:48:30.849Z,101068.84
2023-04-28T09:50:59.341Z,101061.75
2023-04-28T09:53:27.635Z,101060.06
2023-04-28T09:55:58.157Z,101058.88
2023-04-28T09:58:27.324Z,101062.53
2023-04-28T10:00:56.597Z,101058.69
2023-04-28T10:03:28.457Z,101057.25
2023-04-28T10:05:58.228Z,101063.00
2023-04-28T10:08:27.341Z,101059.63
2023-04-28T10:10:56.917Z,101054.88
2023-04-28T10:13:25.435Z,101052.75
2023-04-28T10:15:55.231Z,101052.28
2023-04-28T10:18:23.649Z,101044.34
2023-04-28T10:20:56.556Z,101033.84
2023-04-28T10:23:45.372Z,101033.03
2023-04-28T10:26:16.411Z,101033.66
2023-04-28T10:28:48.450Z,101025.34
2023-04-28T10:31:17.559Z,101026.22
2023-04-28T10:33:45.800Z,101020.94
2023-04-28T10:36:49.087Z,101016.59
2023-04-28T10:39:16.834Z,101019.97
2023-04-28T10:41:46.508Z,101019.78
2023-04-28T10:44:45.017Z,101006.81
2023-04-28T10:47:12.576Z,101008.84
2023-04-28T10:50:11.606Z,101008.28
2023-04-28T10:52:51.785Z,101002.16
2023-04-28T10:55:40.811Z,101004.84
2023-04-28T10:58:36.165Z,100988.59
2023-04-28T11:01:25.719Z,100989.13
2023-04-28T11:04:00.303Z,100985.19
2023-04-28T11:06:29.693Z,100993.03
2023-04-28T11:09:00.373Z,100981.19
2023-04-28T11:11:28.785Z,100977.63
2023-04-28T11:14:33.845Z,100983.69
2023-04-28T11:17:03.164Z,100980.69
2023-04-28T11:19:33.128Z,100973.75
2023-04-28T11:22:02.694Z,100979.00
2023-04-28T11:24:31.584Z,100969.97
2023-04-28T11:27:00.039Z,100974.94
2023-04-28T11:29:36.245Z,100973.47
2023-04-28T11:32:04.554Z,100965.09
2023-04-28T11:34:32.650Z,100963.56
2023-04-28T11:37:00.710Z,100964.94
2023-04-28T11:39:30.077Z,100957.63
2023-04-28T11:41:58.204Z,100961.50
2023-04-28T11:44:27.457Z,100959.59
2023-04-28T11:47:00.648Z,100955.22
2023-04-28T11:49:30.162Z,100954.47
2023-04-28T11:52:00.244Z,100955.28
2023-04-28T11:54:29.239Z,100942.28
2023-04-28T11:56:58.366Z,100949.88
2023-04-28T11:59:27.399Z,100939.22
2023-04-28T12:01:59.176Z,100945.94
2023-04-28T12:04:32.936Z,100933.84
2023-04-28T12:07:02.126Z,100927.53
2023-04-28T12:09:30.075Z,100935.69
2023-04-28T12:11:59.160Z,100928.84
2023-04-28T12:14:26.923Z,100923.16
2023-04-28T12:16:56.991Z,100924.72
2023-04-28T12:19:24.442Z,100921.44
2023-04-28T12:22:02.862Z,100913.34
2023-04-28T12:24:30.852Z,100921.94
2023-04-28T12:27:17.139Z,100915.38
2023-04-28T12:29:46.580Z,100910.56
2023-04-28T12:32:16.005Z,100906.72
2023-04-28T12:34:43.957Z,100903.50
2023-04-28T12:37:12.229Z,100900.56
2023-04-28T12:39:42.376Z,100900.00
2023-04-28T12:42:10.006Z,100896.50
2023-04-28T12:44:38.404Z,100898.47
2023-04-28T12:47:07.873Z,100910.59
2023-04-28T12:49:36.848Z,100892.31
2023-04-28T12:52:05.684Z,100889.75
2023-04-28T12:54:33.253Z,100893.56
2023-04-28T12:57:00.706Z,100886.16
2023-04-28T12:59:28.855Z,100877.69
2023-04-28T13:01:56.364Z,100883.97
2023-04-28T13:04:24.577Z,100879.28
2023-04-28T13:06:54.351Z,100867.50
2023-04-28T13:09:21.854Z,100877.56
2023-04-28T13:11:49.228Z,100866.06
2023-04-28T13:14:16.821Z,100881.97
2023-04-28T13:16:44.307Z,100865.41
2023-04-28T13:19:14.609Z,100857.53
2023-04-28T13:21:42.893Z,100853.94
2023-04-28T13:24:11.791Z,100862.47
2023-04-28T13:26:39.313Z,100855.16
2023-04-28T13:29:08.272Z,100851.50
2023-04-28T13:31:36.044Z,100844.50
2023-04-28T13:34:05.203Z,100846.91
2023-04-28T13:36:34.037Z,100852.94
2023-04-28T13:39:02.650Z,100835.28
2023-04-28T13:41:31.535Z,100834.75
2023-04-28T13:43:58.921Z,100835.50
2023-04-28T13:46:26.368Z,100833.06
2023-04-28T13:48:53.761Z,100838.56
2023-04-28T13:51:21.196Z,100836.16
2023-04-28T13:53:48.549Z,100835.72
2023-04-28T13:56:16.085Z,100837.06
2023-04-28T13:58:44.832Z,100845.63
2023-04-28T14:01:12.222Z,100831.50
2023-04-28T14:03:40.579Z,100820.94
2023-04-28T14:06:08.649Z,100828.28
2023-04-28T14:08:36.657Z,100830.88
2023-04-28T14:11:04.279Z,100840.84
2023-04-28T14:13:31.822Z,100830.78
2023-04-28T14:16:00.643Z,100826.66
2023-04-28T14:18:28.113Z,100828.97
2023-04-28T14:20:55.681Z,100824.59
2023-04-28T14:23:23.595Z,100820.38
2023-04-28T14:25:52.373Z,100821.13
2023-04-28T14:28:21.673Z,100814.25
2023-04-28T14:30:50.020Z,100812.88
2023-04-28T14:33:18.829Z,100816.78
2023-04-28T14:35:46.382Z,100813.09
2023-04-28T14:38:14.173Z,100813.88
2023-04-28T14:40:43.056Z,100807.94
2023-04-28T14:43:10.561Z,100799.28
2023-04-28T14:45:38.167Z,100812.25
2023-04-28T14:48:06.788Z,100805.41
2023-04-28T14:50:35.902Z,100800.88
2023-04-28T14:53:06.817Z,100801.19
2023-04-28T14:55:34.300Z,100808.66
2023-04-28T14:58:01.748Z,100798.00
2023-04-28T15:00:29.241Z,100803.59
2023-04-28T15:02:56.696Z,100783.22
2023-04-28T15:05:24.233Z,100788.00
2023-04-28T15:07:52.978Z,100782.28
2023-04-28T15:10:20.496Z,100772.41
2023-04-28T15:12:49.247Z,100766.88
2023-04-28T15:15:16.715Z,100760.53
2023-04-28T15:17:45.478Z,100766.88
2023-04-28T15:20:12.995Z,100780.41
2023-04-28T15:22:40.974Z,100769.47
2023-04-28T15:25:10.182Z,100776.88
2023-04-28T15:27:37.610Z,100764.75
2023-04-28T15:30:05.887Z,100759.06
2023-04-28T15:32:33.295Z,100769.25
2023-04-28T15:35:01.589Z,100767.41
2023-04-28T15:37:41.451Z,100770.19
2023-04-28T15:40:12.342Z,100759.75
2023-04-28T15:42:42.205Z,100750.22
2023-04-28T15:45:11.850Z,100757.69
2023-04-28T15:47:40.475Z,100754.00
2023-04-28T15:50:10.509Z,100752.47
2023-04-28T15:52:40.614Z,100754.69
2023-04-28T15:55:10.734Z,100741.72
2023-04-28T15:57:38.186Z,100746.66
2023-04-28T16:00:07.235Z,100751.50
2023-04-28T16:02:34.801Z,100749.06
2023-04-28T16:05:04.548Z,100756.56
2023-04-28T16:07:37.979Z,100753.25
2023-04-28T16:10:08.534Z,100747.50
2023-04-28T16:12:38.618Z,100751.06
2023-04-28T16:15:07.075Z,100754.94
2023-04-28T16:17:35.875Z,100753.84
2023-04-28T16:20:04.663Z,100750.75
2023-04-28T16:22:32.511Z,100756.63
2023-04-28T16:25:03.679Z,100751.88
2023-04-28T16:27:31.760Z,100748.50
2023-04-28T16:30:00.971Z,100756.25
2023-04-28T16:32:28.835Z,100755.44
2023-04-28T16:34:58.176Z,100757.34
2023-04-28T16:37:25.937Z,100750.94
2023-04-28T16:39:54.046Z,100748.34
2023-04-28T16:42:22.364Z,100747.31
2023-04-28T16:44:52.535Z,100749.13
2023-04-28T16:47:21.841Z,100747.66
2023-04-28T16:49:49.428Z,100747.13
2023-04-28T16:52:17.058Z,100736.09
2023-04-28T16:54:44.598Z,100738.34
2023-04-28T16:57:12.019Z,100731.09
2023-04-28T16:59:39.432Z,100728.94
2023-04-28T17:02:07.073Z,100729.41
2023-04-28T17:04:36.871Z,100723.69
2023-04-28T17:07:05.322Z,100727.41
2023-04-28T17:09:33.375Z,100727.97
2023-04-28T17:12:03.547Z,100726.69
2023-04-28T17:14:31.103Z,100720.66
2023-04-28T17:16:58.484Z,100727.13
2023-04-28T17:19:25.997Z,100728.22
2023-04-28T17:21:55.633Z,100726.53
2023-04-28T17:24:23.099Z,100726.81
2023-04-28T17:26:51.042Z,100724.00
2023-04-28T17:29:19.001Z,100721.03
2023-04-28T17:31:46.487Z,100720.25
2023-04-28T17:34:13.922Z,100719.34
2023-04-28T17:36:42.078Z,100717.03
2023-04-28T17:39:10.796Z,100714.31
2023-04-28T17:41:38.197Z,100722.84
2023-04-28T17:44:05.742Z,100717.19
2023-04-28T17:46:33.430Z,100727.31
2023-04-28T17:49:00.906Z,100725.09
2023-04-28T17:51:28.633Z,100730.41
2023-04-28T17:53:56.772Z,100724.63
2023-04-28T17:56:25.647Z,100720.84
2023-04-28T17:58:53.082Z,100728.66
2023-04-28T18:01:20.554Z,100731.41
2023-04-28T18:03:48.241Z,100721.03
2023-04-28T18:06:16.312Z,100728.84
2023-04-28T18:08:43.667Z,100729.88
2023-04-28T18:11:12.210Z,100722.38
2023-04-28T18:13:40.924Z,100719.53
2023-04-28T18:16:10.697Z,100715.22
2023-04-28T18:18:38.112Z,100718.75
2023-04-28T18:21:05.638Z,100711.72
2023-04-28T18:23:33.808Z,100714.56
2023-04-28T18:26:01.215Z,100714.50
2023-04-28T18:28:28.628Z,100716.59
2023-04-28T18:30:56.480Z,100713.69
2023-04-28T18:33:28.474Z,100711.56
2023-04-28T18:36:00.361Z,100707.09
2023-04-28T18:38:27.785Z,100700.91
2023-04-28T18:40:55.239Z,100699.38
2023-04-28T18:43:23.580Z,100699.78
2023-04-28T18:45:51.128Z,100706.28
2023-04-28T18:48:20.209Z,100700.03
2023-04-28T18:50:48.599Z,100710.16
2023-04-28T18:53:16.296Z,100704.19
2023-04-28T18:55:43.715Z,100706.03
2023-04-28T18:58:11.712Z,100712.16
2023-04-28T19:00:39.168Z,100707.63
2023-04-28T19:03:06.801Z,100705.25
2023-04-28T19:05:35.655Z,100703.38
2023-04-28T19:08:03.906Z,100702.44
2023-04-28T19:10:33.144Z,100701.00
2023-04-28T19:13:00.569Z,100694.06
2023-04-28T19:15:28.011Z,100701.50
2023-04-28T19:17:56.587Z,100699.38
2023-04-28T19:20:24.020Z,100704.41
2023-04-28T19:22:52.838Z,100688.75
2023-04-28T19:25:20.300Z,100687.13
2023-04-28T19:27:47.816Z,100687.16
2023-04-28T19:30:16.744Z,100683.38
2023-04-28T19:32:44.289Z,100691.84
2023-04-28T19:35:11.733Z,100686.03
2023-04-28T19:37:39.376Z,100686.88
2023-04-28T19:40:09.733Z,100693.91
2023-04-28T19:42:37.167Z,100689.13
2023-04-28T19:45:05.221Z,100687.81
2023-04-28T19:47:34.086Z,100690.44
2023-04-28T19:50:02.336Z,100694.91
2023-04-28T19:52:31.999Z,100692.00
2023-04-28T19:55:00.665Z,100692.34
2023-04-28T19:57:29.462Z,100690.91
2023-04-28T19:59:57.410Z,100693.06
2023-04-28T20:02:24.961Z,100684.78
2023-04-28T20:04:52.414Z,100684.78
2023-04-28T20:07:19.971Z,100691.31
2023-04-28T20:09:47.534Z,100692.78
2023-04-28T20:12:15.288Z,100691.19
2023-04-28T20:14:47.073Z,100684.16
2023-04-28T20:17:14.518Z,100681.97
2023-04-28T20:19:45.190Z,100683.50
2023-04-28T20:22:19.867Z,100687.47
2023-04-28T20:24:47.360Z,100673.19
2023-04-28T20:27:15.199Z,100677.56
2023-04-28T20:29:44.089Z,100677.75
2023-04-28T20:32:11.602Z,100666.59
2023-04-28T20:34:39.414Z,100665.25
2023-04-28T20:37:08.123Z,100664.03
2023-04-28T20:39:35.557Z,100657.63
2023-04-28T20:42:03.544Z,100654.66
2023-04-28T20:44:31.004Z,100661.78
2023-04-28T20:47:01.445Z,100658.53
2023-04-28T20:49:29.267Z,100647.56
2023-04-28T20:52:03.083Z,100639.91
2023-04-28T20:54:32.629Z,100655.66
2023-04-28T20:57:00.314Z,100641.84
2023-04-28T20:59:29.022Z,100638.28
2023-04-28T21:01:58.150Z,100639.00
2023-04-28T21:04:28.066Z,100638.00
2023-04-28T21:06:55.971Z,100635.44
2023-04-28T21:09:24.910Z,100635.94
2023-04-28T21:11:52.527Z,100634.31
2023-04-28T21:14:20.068Z,100626.69
2023-04-28T21:16:47.497Z,100632.41
2023-04-28T21:19:14.907Z,100621.94
2023-04-28T21:21:43.631Z,100620.41
2023-04-28T21:24:11.107Z,100625.53
2023-04-28T21:26:38.583Z,100614.63
2023-04-28T21:29:06.264Z,100619.19
2023-04-28T21:31:33.734Z,100617.72
2023-04-28T21:34:01.204Z,100615.78
2023-04-28T21:36:28.599Z,100604.28
2023-04-28T21:38:57.618Z,100613.38
2023-04-28T21:41:25.984Z,100619.81
2023-04-28T21:43:53.501Z,100616.28
2023-04-28T21:46:21.052Z,100613.47
2023-04-28T21:48:49.038Z,100609.47
2023-04-28T21:51:16.777Z,100611.13
2023-04-28T21:53:44.200Z,100609.06
2023-04-28T21:56:12.950Z,100606.78
2023-04-28T21:58:40.548Z,100605.63
2023-04-28T22:01:08.258Z,100610.53
2023-04-28T22:03:36.212Z,100601.44
2023-04-28T22:06:04.269Z,100600.16
2023-04-28T22:08:31.750Z,100600.47
2023-04-28T22:10:59.280Z,100613.94
2023-04-28T22:13:28.092Z,100597.00
2023-04-28T22:15:56.168Z,100595.63
2023-04-28T22:18:23.743Z,100589.41
2023-04-28T22:20:51.357Z,100591.47
2023-04-28T22:23:18.823Z,100586.44
2023-04-28T22:25:46.420Z,100589.13
2023-04-28T22:28:14.299Z,100587.28
2023-04-28T22:30:43.067Z,100582.28
2023-04-28T22:33:10.984Z,100586.34
2023-04-28T22:35:38.385Z,100583.72
2023-04-28T22:38:05.745Z,100571.00
2023-04-28T22:40:33.582Z,100570.50
2023-04-28T22:43:00.942Z,100563.66
2023-04-28T22:45:28.748Z,100569.47
2023-04-28T22:47:57.625Z,100568.66
2023-04-28T22:50:25.129Z,100565.84
2023-04-28T22:52:52.551Z,100563.13
2023-04-28T22:55:20.082Z,100565.47
2023-04-28T22:57:47.627Z,100565.25
2023-04-28T23:00:16.617Z,100562.13
2023-04-28T23:02:44.939Z,100559.53
2023-04-28T23:05:13.919Z,100563.53
2023-04-28T23:07:42.018Z,100554.31
2023-04-28T23:10:11.170Z,100553.69
2023-04-28T23:12:39.453Z,100545.22
2023-04-28T23:15:07.968Z,100558.06
2023-04-28T23:17:35.436Z,100551.75
2023-04-28T23:20:02.985Z,100551.28
2023-04-28T23:22:31.749Z,100548.22
2023-04-28T23:24:59.224Z,100543.69
2023-04-28T23:27:26.729Z,100545.94
2023-04-28T23:29:54.429Z,100538.00
2023-04-28T23:32:22.006Z,100535.56
2023-04-28T23:34:49.532Z,100532.44
2023-04-28T23:37:16.916Z,100528.84
2023-04-28T23:39:45.688Z,100527.53
2023-04-28T23:42:13.053Z,100518.72
2023-04-28T23:44:40.395Z,100521.47
2023-04-28T23:47:07.777Z,100517.75
2023-04-28T23:49:35.177Z,100520.22
2023-04-28T23:52:02.773Z,100514.78
2023-04-28T23:54:30.733Z,100519.88
2023-04-28T23:56:59.436Z,100513.66
2023-04-28T23:59:27.413Z,100507.47
